createdAt,value
2022-11-24T00:01:32.965Z,21.50
2022-11-24T00:04:04.076Z,23.10
2022-11-24T00:06:36.277Z,26.70
2022-11-24T00:09:06.001Z,25.10
2022-11-24T00:11:37.748Z,25.00
2022-11-24T00:14:07.572Z,24.40
2022-11-24T00:16:37.774Z,24.70
2022-11-24T00:19:09.886Z,24.00
2022-11-24T00:21:39.392Z,27.30
2022-11-24T00:24:12.344Z,25.40
2022-11-24T00:26:41.376Z,23.70
2022-11-24T00:29:10.522Z,24.30
2022-11-24T00:31:41.411Z,23.60
2022-11-24T00:34:14.854Z,24.70
2022-11-24T00:36:43.861Z,23.50
2022-11-24T00:39:15.237Z,23.20
2022-11-24T00:41:45.958Z,25.70
2022-11-24T00:44:14.856Z,24.90
2022-11-24T00:46:44.018Z,25.80
2022-11-24T00:49:13.233Z,24.40
2022-11-24T00:51:42.632Z,24.60
2022-11-24T00:54:11.642Z,25.30
2022-11-24T00:56:41.209Z,23.20
2022-11-24T00:59:11.141Z,23.20
2022-11-24T01:01:39.969Z,23.30
2022-11-24T01:04:09.131Z,22.90
2022-11-24T01:06:38.011Z,22.10
2022-11-24T01:09:07.115Z,23.10
2022-11-24T01:11:55.563Z,23.60
2022-11-24T01:14:26.349Z,23.60
2022-11-24T01:16:57.840Z,24.60
2022-11-24T01:19:26.622Z,23.40
2022-11-24T01:21:55.531Z,24.80
2022-11-24T01:24:24.730Z,24.50
2022-11-24T01:26:54.841Z,23.80
2022-11-24T01:29:23.916Z,23.50
2022-11-24T01:31:53.252Z,23.00
2022-11-24T01:34:22.651Z,24.80
2022-11-24T01:36:52.651Z,23.60
2022-11-24T01:39:21.243Z,24.90
2022-11-24T01:41:50.222Z,22.10
2022-11-24T01:44:27.731Z,21.50
2022-11-24T01:47:04.180Z,22.50
2022-11-24T01:49:41.662Z,22.30
2022-11-24T01:52:30.879Z,22.30
2022-11-24T01:55:02.871Z,22.10
2022-11-24T01:57:39.446Z,23.70
2022-11-24T02:00:12.413Z,24.40
2022-11-24T02:02:45.317Z,23.40
2022-11-24T02:05:25.812Z,22.70
2022-11-24T02:07:56.667Z,23.60
2022-11-24T02:10:25.659Z,22.90
2022-11-24T02:12:56.196Z,24.40
2022-11-24T02:15:25.580Z,23.20
2022-11-24T02:17:54.774Z,24.10
2022-11-24T02:20:23.537Z,22.50
2022-11-24T02:23:06.910Z,22.10
2022-11-24T02:25:54.320Z,22.50
2022-11-24T02:28:24.913Z,23.70
2022-11-24T02:30:54.575Z,24.20
2022-11-24T02:33:23.211Z,23.90
2022-11-24T02:35:54.006Z,23.80
2022-11-24T02:38:49.054Z,23.80
2022-11-24T02:41:20.686Z,22.70
2022-11-24T02:43:54.617Z,22.20
2022-11-24T02:46:23.646Z,22.60
2022-11-24T02:48:52.521Z,24.20
2022-11-24T02:51:21.881Z,23.50
2022-11-24T02:53:51.519Z,20.90
2022-11-24T02:56:20.197Z,23.30
2022-11-24T02:58:49.076Z,21.70
2022-11-24T03:01:21.025Z,23.20
2022-11-24T03:03:49.837Z,23.90
2022-11-24T03:06:18.640Z,22.80
2022-11-24T03:08:47.430Z,22.90
2022-11-24T03:11:18.477Z,22.80
2022-11-24T03:13:47.358Z,23.90
2022-11-24T03:16:16.061Z,25.30
2022-11-24T03:18:45.038Z,23.40
2022-11-24T03:21:14.647Z,24.20
2022-11-24T03:23:44.257Z,23.30
2022-11-24T03:26:19.284Z,22.00
2022-11-24T03:28:50.842Z,23.60
2022-11-24T03:31:19.328Z,23.20
2022-11-24T03:33:48.001Z,22.20
2022-11-24T03:36:17.301Z,22.30
2022-11-24T03:38:46.318Z,23.10
2022-11-24T03:41:14.861Z,24.50
2022-11-24T03:43:44.307Z,23.00
2022-11-24T03:46:13.309Z,22.30
2022-11-24T03:48:49.512Z,21.20
2022-11-24T03:51:19.127Z,20.90
2022-11-24T03:53:48.035Z,22.20
2022-11-24T03:56:17.020Z,22.00
2022-11-24T03:58:46.518Z,21.90
2022-11-24T04:01:15.513Z,21.90
2022-11-24T04:03:47.683Z,20.90
2022-11-24T04:06:16.680Z,22.00
2022-11-24T04:08:45.362Z,21.00
2022-11-24T04:11:34.118Z,21.40
2022-11-24T04:14:02.928Z,20.20
2022-11-24T04:16:31.831Z,20.80
2022-11-24T04:19:00.502Z,22.30
2022-11-24T04:21:29.669Z,21.40
2022-11-24T04:23:58.583Z,21.90
2022-11-24T04:26:32.680Z,19.90
2022-11-24T04:29:01.978Z,21.50
2022-11-24T04:31:30.809Z,22.20
2022-11-24T04:33:59.783Z,22.30
2022-11-24T04:36:28.339Z,23.10
2022-11-24T04:39:25.472Z,22.50
2022-11-24T04:41:47.615Z,22.40
2022-11-24T04:44:16.357Z,23.80
2022-11-24T04:46:45.966Z,30.40
2022-11-24T04:49:15.825Z,33.60
2022-11-24T04:51:44.717Z,26.90
2022-11-24T04:54:14.190Z,24.10
2022-11-24T04:56:43.006Z,23.00
2022-11-24T04:59:15.180Z,22.90
2022-11-24T05:01:44.760Z,23.50
2022-11-24T05:04:15.611Z,19.60
2022-11-24T05:06:45.346Z,20.40
2022-11-24T05:09:16.726Z,20.30
2022-11-24T05:11:45.603Z,22.60
2022-11-24T05:14:14.279Z,21.50
2022-11-24T05:16:42.961Z,18.80
2022-11-24T05:19:11.614Z,21.50
2022-11-24T05:21:40.542Z,20.50
2022-11-24T05:24:11.243Z,19.90
2022-11-24T05:26:39.700Z,21.10
2022-11-24T05:29:08.562Z,20.80
2022-11-24T05:31:38.055Z,19.90
2022-11-24T05:34:07.762Z,19.50
2022-11-24T05:36:56.999Z,20.40
2022-11-24T05:39:25.675Z,19.70
2022-11-24T05:41:54.912Z,20.60
2022-11-24T05:44:24.918Z,18.30
2022-11-24T05:46:56.693Z,19.20
2022-11-24T05:49:25.296Z,21.10
2022-11-24T05:51:53.923Z,20.60
2022-11-24T05:54:22.522Z,20.10
2022-11-24T05:56:51.298Z,21.30
2022-11-24T05:59:19.981Z,22.80
2022-11-24T06:01:49.109Z,21.50
2022-11-24T06:04:17.992Z,20.70
2022-11-24T06:06:47.777Z,21.30
2022-11-24T06:09:18.019Z,22.30
2022-11-24T06:11:49.064Z,21.80
2022-11-24T06:14:17.837Z,23.50
2022-11-24T06:16:46.621Z,21.90
2022-11-24T06:19:18.693Z,19.80
2022-11-24T06:21:47.402Z,21.80
2022-11-24T06:24:18.620Z,22.70
2022-11-24T06:26:47.288Z,22.40
2022-11-24T06:29:16.823Z,21.50
2022-11-24T06:31:45.427Z,22.30
2022-11-24T06:34:14.804Z,23.40
2022-11-24T06:36:43.563Z,22.20
2022-11-24T06:39:13.698Z,24.10
2022-11-24T06:41:42.503Z,22.90
2022-11-24T06:44:11.570Z,21.50
2022-11-24T06:46:41.583Z,23.60
2022-11-24T06:49:10.480Z,22.60
2022-11-24T06:51:43.277Z,23.60
2022-11-24T06:54:16.698Z,22.90
2022-11-24T06:56:46.690Z,21.30
2022-11-24T06:59:20.160Z,20.10
2022-11-24T07:01:48.966Z,22.10
2022-11-24T07:04:17.777Z,23.90
2022-11-24T07:06:47.463Z,21.70
2022-11-24T07:09:17.083Z,23.80
2022-11-24T07:11:45.761Z,22.20
2022-11-24T07:14:15.165Z,23.60
2022-11-24T07:16:45.090Z,22.00
2022-11-24T07:19:14.160Z,24.90
2022-11-24T07:21:44.543Z,23.30
2022-11-24T07:24:13.282Z,24.90
2022-11-24T07:26:42.065Z,23.20
2022-11-24T07:29:10.583Z,22.90
2022-11-24T07:31:39.765Z,26.00
2022-11-24T07:34:08.749Z,24.80
2022-11-24T07:36:39.989Z,26.30
2022-11-24T07:39:08.758Z,25.00
2022-11-24T07:41:37.443Z,22.50
2022-11-24T07:44:06.353Z,21.60
2022-11-24T07:46:35.226Z,21.50
2022-11-24T07:49:04.523Z,22.10
2022-11-24T07:51:33.427Z,23.00
2022-11-24T07:54:02.213Z,16.90
2022-11-24T07:56:30.799Z,20.40
2022-11-24T07:58:59.877Z,23.00
2022-11-24T08:01:28.620Z,21.90
2022-11-24T08:03:57.603Z,21.40
2022-11-24T08:06:38.108Z,25.70
2022-11-24T08:09:08.452Z,22.70
2022-11-24T08:11:37.140Z,22.60
2022-11-24T08:14:06.032Z,25.10
2022-11-24T08:16:36.021Z,21.50
2022-11-24T08:19:04.691Z,21.70
2022-11-24T08:21:34.023Z,22.10
2022-11-24T08:24:02.815Z,19.50
2022-11-24T08:26:31.609Z,21.30
2022-11-24T08:29:00.290Z,22.00
2022-11-24T08:31:34.088Z,18.60
2022-11-24T08:34:04.419Z,22.50
2022-11-24T08:36:35.832Z,19.20
2022-11-24T08:39:05.987Z,19.40
2022-11-24T08:41:34.608Z,22.20
2022-11-24T08:44:04.921Z,22.90
2022-11-24T08:46:36.353Z,22.00
2022-11-24T08:49:05.754Z,24.50
2022-11-24T08:51:34.870Z,24.50
2022-11-24T08:54:04.556Z,24.20
2022-11-24T08:56:34.358Z,24.30
2022-11-24T08:59:04.361Z,25.90
2022-11-24T09:01:33.277Z,21.30
2022-11-24T09:04:02.807Z,22.10
2022-11-24T09:06:32.797Z,22.90
2022-11-24T09:09:01.302Z,23.50
2022-11-24T09:11:31.079Z,20.10
2022-11-24T09:13:59.987Z,21.10
2022-11-24T09:16:29.613Z,19.10
2022-11-24T09:19:01.034Z,20.90
2022-11-24T09:21:32.066Z,21.30
2022-11-24T09:24:01.198Z,20.80
2022-11-24T09:26:32.691Z,21.10
2022-11-24T09:29:04.229Z,18.90
2022-11-24T09:31:35.021Z,22.80
2022-11-24T09:34:09.437Z,20.40
2022-11-24T09:36:38.120Z,21.50
2022-11-24T09:39:07.042Z,21.50
2022-11-24T09:42:02.422Z,18.20
2022-11-24T09:45:11.463Z,20.00
2022-11-24T09:48:00.155Z,19.70
2022-11-24T09:50:33.186Z,19.50
2022-11-24T09:53:24.294Z,20.80
2022-11-24T09:55:59.296Z,20.60
2022-11-24T09:58:49.160Z,24.00
2022-11-24T10:01:20.600Z,19.50
2022-11-24T10:03:51.726Z,18.30
2022-11-24T10:06:25.641Z,17.70
2022-11-24T10:09:20.415Z,13.70
2022-11-24T10:12:04.184Z,15.40
2022-11-24T10:14:43.387Z,16.30
2022-11-24T10:17:54.872Z,17.00
2022-11-24T10:21:11.759Z,16.80
2022-11-24T10:23:46.736Z,15.60
2022-11-24T10:26:20.511Z,14.40
2022-11-24T10:28:58.441Z,17.10
2022-11-24T10:31:38.127Z,17.80
2022-11-24T10:34:27.642Z,15.80
2022-11-24T10:37:00.528Z,16.00
2022-11-24T10:40:04.200Z,17.50
2022-11-24T10:42:37.704Z,16.80
2022-11-24T10:45:25.262Z,18.40
2022-11-24T10:47:54.152Z,15.90
2022-11-24T10:50:33.536Z,18.50
2022-11-24T10:53:17.432Z,17.90
2022-11-24T10:55:55.533Z,18.30
2022-11-24T10:58:37.265Z,18.30
2022-11-24T11:01:15.896Z,16.40
2022-11-24T11:03:56.321Z,15.50
2022-11-24T11:06:30.599Z,16.70
2022-11-24T11:09:09.462Z,13.80
2022-11-24T11:11:40.256Z,13.30
2022-11-24T11:14:11.453Z,17.30
2022-11-24T11:16:58.283Z,16.90
2022-11-24T11:19:49.443Z,16.40
2022-11-24T11:22:26.306Z,14.40
2022-11-24T11:25:07.498Z,15.20
2022-11-24T11:27:36.296Z,16.00
2022-11-24T11:36:14.346Z,20.60
2022-11-24T11:38:44.352Z,20.50
2022-11-24T11:41:45.401Z,23.70
2022-11-24T11:44:29.536Z,18.50
2022-11-24T11:46:59.810Z,20.20
2022-11-24T11:49:28.659Z,22.60
2022-11-24T11:52:09.935Z,20.60
2022-11-24T11:55:08.935Z,19.10
2022-11-24T11:57:56.278Z,22.60
2022-11-24T12:00:25.450Z,21.20
2022-11-24T12:03:14.418Z,21.80
2022-11-24T12:05:49.655Z,22.00
2022-11-24T12:09:17.980Z,20.90
2022-11-24T12:12:07.301Z,22.20
2022-11-24T12:14:54.009Z,22.30
2022-11-24T12:17:44.197Z,21.90
2022-11-24T12:20:44.421Z,23.20
2022-11-24T12:23:33.695Z,24.10
2022-11-24T12:26:16.609Z,25.20
2022-11-24T12:29:20.137Z,25.20
2022-11-24T12:32:21.756Z,22.30
2022-11-24T12:35:43.705Z,22.00
2022-11-24T12:38:41.240Z,22.70
2022-11-24T12:41:42.601Z,24.10
2022-11-24T12:44:50.742Z,26.60
2022-11-24T12:47:32.935Z,22.10
2022-11-24T12:50:19.427Z,23.50
2022-11-24T12:52:58.420Z,24.40
2022-11-24T12:55:35.335Z,22.30
2022-11-24T12:58:32.700Z,21.40
2022-11-24T13:01:17.234Z,19.30
2022-11-24T13:04:04.911Z,22.80
2022-11-24T13:07:45.626Z,22.10
2022-11-24T13:10:54.179Z,22.20
2022-11-24T13:13:19.597Z,23.40
2022-11-24T13:18:48.147Z,21.40
2022-11-24T13:21:29.782Z,20.00
2022-11-24T13:24:05.281Z,21.10
2022-11-24T13:26:42.716Z,22.80
2022-11-24T13:29:48.788Z,23.20
2022-11-24T13:32:21.464Z,24.20
2022-11-24T13:34:55.301Z,22.40
2022-11-24T13:37:31.220Z,20.50
2022-11-24T13:40:24.277Z,22.00
2022-11-24T13:42:56.567Z,21.50
2022-11-24T13:45:41.184Z,23.10
2022-11-24T13:48:22.585Z,21.50
2022-11-24T13:50:52.315Z,22.00
2022-11-24T13:53:50.196Z,20.70
2022-11-24T13:56:18.849Z,21.80
2022-11-24T13:58:54.777Z,25.60
2022-11-24T14:01:33.982Z,21.60
2022-11-24T14:04:34.014Z,23.40
2022-11-24T14:07:09.360Z,22.80
2022-11-24T14:09:46.204Z,23.70
2022-11-24T14:12:20.609Z,23.10
2022-11-24T14:14:52.281Z,22.90
2022-11-24T14:17:25.902Z,21.80
2022-11-24T14:19:56.702Z,30.50
2022-11-24T14:22:32.336Z,31.80
2022-11-24T14:25:02.592Z,31.30
2022-11-24T14:27:36.872Z,29.60
2022-11-24T14:30:09.428Z,27.40
2022-11-24T14:32:38.339Z,24.90
2022-11-24T14:35:42.572Z,24.00
2022-11-24T14:38:12.803Z,23.00
2022-11-24T14:40:53.061Z,23.60
2022-11-24T14:43:30.530Z,22.70
2022-11-24T14:46:07.522Z,22.40
2022-11-24T14:48:37.683Z,24.50
2022-11-24T14:51:12.262Z,24.40
2022-11-24T14:53:44.440Z,19.60
2022-11-24T14:56:25.625Z,20.40
2022-11-24T14:58:55.736Z,22.90
2022-11-24T15:01:27.452Z,19.90
2022-11-24T15:04:26.942Z,23.30
2022-11-24T15:07:06.517Z,24.00
2022-11-24T15:09:40.172Z,23.00
2022-11-24T15:12:11.672Z,22.20
2022-11-24T15:14:55.336Z,21.70
2022-11-24T15:17:26.665Z,23.20
2022-11-24T15:20:17.154Z,22.80
2022-11-24T15:22:47.170Z,25.90
2022-11-24T15:25:22.782Z,25.50
2022-11-24T15:27:52.343Z,24.20
2022-11-24T15:30:23.571Z,25.10
2022-11-24T15:32:57.477Z,25.40
2022-11-24T15:35:31.199Z,24.50
2022-11-24T15:38:00.092Z,24.20
2022-11-24T15:40:28.857Z,26.50
2022-11-24T15:43:00.741Z,26.10
2022-11-24T15:45:35.139Z,25.20
2022-11-24T15:48:03.737Z,24.30
2022-11-24T15:50:32.618Z,24.60
2022-11-24T15:53:01.298Z,27.40
2022-11-24T15:55:29.986Z,28.50
2022-11-24T15:57:58.901Z,26.50
2022-11-24T16:00:31.028Z,26.60
2022-11-24T16:03:38.459Z,26.10
2022-11-24T16:05:56.275Z,24.70
2022-11-24T16:08:25.562Z,25.60
2022-11-24T16:10:54.866Z,25.70
2022-11-24T16:13:24.208Z,25.00
2022-11-24T16:15:52.996Z,26.50
2022-11-24T16:18:22.254Z,24.90
2022-11-24T16:20:51.681Z,24.10
2022-11-24T16:23:20.852Z,24.70
2022-11-24T16:25:49.955Z,24.10
2022-11-24T16:28:21.105Z,26.20
2022-11-24T16:30:51.519Z,23.40
2022-11-24T16:33:20.510Z,25.60
2022-11-24T16:35:52.103Z,25.50
2022-11-24T16:38:22.749Z,26.10
2022-11-24T16:40:55.501Z,26.30
2022-11-24T16:43:26.342Z,25.40
2022-11-24T16:46:14.081Z,24.80
2022-11-24T16:48:43.359Z,23.40
2022-11-24T16:51:13.095Z,26.60
2022-11-24T16:53:42.374Z,25.50
2022-11-24T16:56:12.545Z,28.90
2022-11-24T16:58:41.584Z,25.30
2022-11-24T17:01:20.438Z,25.30
2022-11-24T17:03:49.698Z,24.00
2022-11-24T17:06:18.896Z,25.90
2022-11-24T17:08:51.673Z,23.00
2022-11-24T17:11:24.842Z,22.40
2022-11-24T17:13:54.879Z,24.80
2022-11-24T17:16:24.971Z,24.90
2022-11-24T17:18:54.938Z,25.70
2022-11-24T17:21:26.079Z,24.10
2022-11-24T17:24:00.354Z,25.20
2022-11-24T17:26:29.451Z,25.30
2022-11-24T17:28:59.072Z,24.20
2022-11-24T17:31:41.536Z,23.60
2022-11-24T17:34:14.271Z,24.50
2022-11-24T17:36:46.372Z,28.20
2022-11-24T17:39:18.103Z,26.40
2022-11-24T17:41:56.299Z,27.10
2022-11-24T17:44:26.099Z,28.80
2022-11-24T17:46:56.081Z,26.40
2022-11-24T17:49:25.238Z,26.00
2022-11-24T17:51:54.738Z,23.50
2022-11-24T17:54:45.212Z,23.70
2022-11-24T17:57:14.926Z,22.80
2022-11-24T17:59:46.148Z,25.20
2022-11-24T18:02:15.097Z,25.30
2022-11-24T18:04:44.677Z,24.20
2022-11-24T18:07:13.913Z,25.50
2022-11-24T18:09:45.053Z,26.10
2022-11-24T18:12:14.716Z,25.30
2022-11-24T18:14:43.716Z,25.10
2022-11-24T18:17:13.117Z,24.80
2022-11-24T18:19:43.038Z,26.40
2022-11-24T18:22:12.537Z,26.50
2022-11-24T18:24:42.346Z,25.60
2022-11-24T18:27:11.622Z,26.80
2022-11-24T18:29:42.616Z,27.70
2022-11-24T18:32:12.577Z,27.60
2022-11-24T18:34:42.234Z,27.90
2022-11-24T18:37:16.017Z,28.00
2022-11-24T18:39:46.171Z,29.00
2022-11-24T18:42:17.758Z,28.60
2022-11-24T18:44:52.740Z,28.60
2022-11-24T18:47:24.702Z,29.00
2022-11-24T18:49:54.594Z,26.10
2022-11-24T18:52:24.640Z,27.10
2022-11-24T18:54:54.679Z,25.90
2022-11-24T18:57:25.482Z,26.40
2022-11-24T18:59:56.197Z,26.60
2022-11-24T19:02:31.400Z,26.70
2022-11-24T19:05:04.148Z,28.10
2022-11-24T19:07:34.793Z,27.90
2022-11-24T19:10:05.290Z,24.90
2022-11-24T19:12:35.417Z,25.50
2022-11-24T19:15:07.695Z,24.80
2022-11-24T19:17:37.426Z,25.40
2022-11-24T19:20:07.801Z,25.80
2022-11-24T19:22:37.996Z,26.40
2022-11-24T19:25:10.501Z,25.10
2022-11-24T19:27:40.665Z,25.80
2022-11-24T19:30:10.661Z,28.80
2022-11-24T19:32:40.869Z,26.20
2022-11-24T19:35:12.120Z,26.30
2022-11-24T19:37:43.904Z,25.80
2022-11-24T19:40:15.599Z,26.80
2022-11-24T19:42:48.732Z,24.50
2022-11-24T19:45:21.087Z,26.90
2022-11-24T19:47:55.573Z,27.50
2022-11-24T19:50:26.946Z,42.80
2022-11-24T19:52:57.268Z,42.80
2022-11-24T19:55:28.533Z,24.80
2022-11-24T19:57:59.048Z,24.00
2022-11-24T20:00:32.072Z,25.60
2022-11-24T20:03:02.642Z,25.70
2022-11-24T20:05:42.504Z,25.70
2022-11-24T20:08:22.963Z,24.80
2022-11-24T20:10:55.498Z,24.80
2022-11-24T20:13:28.599Z,27.10
2022-11-24T20:16:06.234Z,27.40
2022-11-24T20:18:41.578Z,25.70
2022-11-24T20:21:17.694Z,26.20
2022-11-24T20:23:53.677Z,23.00
2022-11-24T20:26:25.909Z,26.00
2022-11-24T20:28:57.203Z,23.50
2022-11-24T20:31:30.529Z,23.70
2022-11-24T20:34:02.260Z,24.00
2022-11-24T20:36:36.032Z,23.40
2022-11-24T20:39:08.624Z,25.70
2022-11-24T20:41:39.733Z,26.60
2022-11-24T20:44:14.078Z,23.70
2022-11-24T20:46:46.080Z,27.50
2022-11-24T20:49:20.079Z,26.20
2022-11-24T20:51:50.818Z,28.00
2022-11-24T20:54:19.900Z,27.10
2022-11-24T20:56:49.818Z,26.50
2022-11-24T20:59:24.223Z,28.50
2022-11-24T21:01:57.335Z,29.70
2022-11-24T21:04:29.514Z,31.00
2022-11-24T21:06:59.224Z,31.10
2022-11-24T21:09:32.430Z,30.40
2022-11-24T21:12:02.901Z,32.80
2022-11-24T21:14:35.381Z,61.30
2022-11-24T21:17:06.327Z,46.90
2022-11-24T21:19:35.344Z,35.90
2022-11-24T21:22:04.720Z,31.80
2022-11-24T21:24:34.455Z,32.50
2022-11-24T21:27:04.579Z,31.70
2022-11-24T21:29:34.179Z,31.80
2022-11-24T21:32:02.932Z,31.60
2022-11-24T21:34:31.963Z,31.60
2022-11-24T21:37:01.402Z,28.30
2022-11-24T21:39:30.319Z,27.50
2022-11-24T21:42:00.048Z,27.50
2022-11-24T21:44:31.649Z,27.20
2022-11-24T21:47:00.415Z,26.40
2022-11-24T21:49:29.195Z,27.70
2022-11-24T21:52:00.024Z,27.10
2022-11-24T21:54:29.122Z,27.90
2022-11-24T21:56:57.597Z,32.90
2022-11-24T21:59:26.367Z,32.90
2022-11-24T22:01:58.082Z,34.40
2022-11-24T22:04:26.845Z,32.60
2022-11-24T22:06:55.919Z,31.70
2022-11-24T22:09:24.618Z,35.10
2022-11-24T22:11:53.702Z,28.90
2022-11-24T22:14:22.301Z,39.30
2022-11-24T22:16:51.208Z,31.80
2022-11-24T22:19:21.000Z,35.30
2022-11-24T22:21:50.068Z,33.10
2022-11-24T22:24:22.993Z,34.90
2022-11-24T22:26:55.255Z,25.10
2022-11-24T22:29:24.020Z,30.30
2022-11-24T22:31:52.984Z,31.10
2022-11-24T22:34:22.043Z,31.90
2022-11-24T22:36:51.092Z,25.30
2022-11-24T22:39:20.837Z,23.10
2022-11-24T22:41:50.143Z,33.00
2022-11-24T22:44:19.541Z,27.10
2022-11-24T22:46:48.522Z,30.70
2022-11-24T22:49:17.303Z,30.90
2022-11-24T22:51:46.079Z,26.60
2022-11-24T22:54:14.886Z,28.90
2022-11-24T22:56:43.753Z,24.70
2022-11-24T22:59:12.776Z,27.80
2022-11-24T23:01:41.425Z,31.90
2022-11-24T23:04:10.261Z,29.40
2022-11-24T23:06:39.335Z,29.80
2022-11-24T23:09:11.526Z,31.80
2022-11-24T23:11:41.819Z,27.40
2022-11-24T23:14:15.624Z,34.10
2022-11-24T23:16:44.877Z,33.30
2022-11-24T23:19:13.633Z,33.80
2022-11-24T23:21:42.638Z,28.20
2022-11-24T23:24:11.754Z,34.90
2022-11-24T23:26:41.884Z,34.90
2022-11-24T23:29:11.217Z,32.80
2022-11-24T23:31:43.018Z,30.90
2022-11-24T23:34:12.065Z,30.50
2022-11-24T23:36:40.959Z,32.20
2022-11-24T23:39:13.695Z,31.70
2022-11-24T23:41:42.779Z,31.40
2022-11-24T23:44:13.686Z,28.10
2022-11-24T23:46:42.390Z,31.80
2022-11-24T23:49:11.362Z,28.70
2022-11-24T23:51:42.402Z,30.90
2022-11-24T23:54:14.340Z,28.80
2022-11-24T23:56:43.027Z,30.10
2022-11-24T23:59:12.897Z,33.00
